Time;durP1;ratioP1;P1;durP2;ratioP2;P2;SDS_P1;SDS_P2;PMS_P1;PMS_P2;Temp;Humidity;BMP_temperature;BMP_pressure;BME280_temperature;BME280_humidity;BME280_pressure;Samples;Min_cycle;Max_cycle;Signal;HPM_P1;HPM_P2
2023/12/11 00:02:20;;;;;;;7.60;2.35;;;;;;;18.86;45.04;99900.69;5069455;28;20032;-66
2023/12/11 00:04:46;;;;;;;8.90;2.13;;;;;;;18.80;45.04;99885.41;5075548;28;20041;-66
2023/12/11 00:07:11;;;;;;;8.50;2.88;;;;;;;18.89;45.02;99894.28;5068118;28;20028;-65
2023/12/11 00:09:36;;;;;;;8.55;2.63;;;;;;;18.85;44.94;99893.75;5068073;28;20086;-65
2023/12/11 00:12:02;;;;;;;8.52;2.25;;;;;;;18.80;44.99;99890.69;5067977;28;20476;-65
2023/12/11 00:14:27;;;;;;;10.52;2.50;;;;;;;18.85;44.88;99902.50;5067520;28;20438;-65
2023/12/11 00:16:53;;;;;;;7.30;2.33;;;;;;;18.78;44.96;99890.84;5068510;28;20389;-65
2023/12/11 00:19:18;;;;;;;10.70;2.40;;;;;;;18.76;45.01;99887.53;5065893;28;20044;-66
2023/12/11 00:21:44;;;;;;;6.28;2.03;;;;;;;18.82;44.92;99902.78;5067756;28;20031;-68
2023/12/11 00:24:10;;;;;;;10.10;2.63;;;;;;;18.83;44.72;99906.22;5067377;28;20025;-66
2023/12/11 00:26:36;;;;;;;6.53;2.17;;;;;;;18.77;44.94;99896.28;5050308;28;20115;-67
2023/12/11 00:29:01;;;;;;;8.57;2.40;;;;;;;18.81;45.10;99902.91;5068230;28;20109;-68
2023/12/11 00:31:27;;;;;;;9.25;2.65;;;;;;;18.78;45.07;99901.41;5066184;28;20040;-67
2023/12/11 00:33:52;;;;;;;11.15;3.08;;;;;;;18.79;44.88;99899.63;5068429;28;20129;-66
2023/12/11 00:36:17;;;;;;;10.50;2.60;;;;;;;18.77;45.01;99896.28;5068204;28;20046;-67
2023/12/11 00:38:42;;;;;;;7.40;2.38;;;;;;;18.76;45.04;99892.81;5066927;28;20032;-66
2023/12/11 00:41:08;;;;;;;11.32;2.47;;;;;;;18.75;44.89;99890.31;5067463;28;20036;-66
2023/12/11 00:43:34;;;;;;;7.60;2.30;;;;;;;18.75;44.92;99896.44;5067771;28;20035;-66
2023/12/11 00:45:59;;;;;;;7.00;2.25;;;;;;;18.64;44.94;99871.13;5081964;28;20377;-66
2023/12/11 00:48:25;;;;;;;8.38;2.55;;;;;;;18.73;44.90;99895.75;5087547;28;20024;-65
2023/12/11 00:50:50;;;;;;;7.32;2.50;;;;;;;18.73;44.80;99887.84;5087498;28;20063;-65
2023/12/11 00:53:15;;;;;;;6.53;2.10;;;;;;;18.72;44.75;99885.34;5087410;28;20036;-65
2023/12/11 00:55:41;;;;;;;9.40;2.30;;;;;;;18.69;44.82;99881.19;5075046;28;20074;-65
2023/12/11 00:58:06;;;;;;;8.27;2.28;;;;;;;18.70;44.86;99882.03;5066743;28;20040;-65
2023/12/11 01:00:31;;;;;;;10.30;2.78;;;;;;;18.70;44.99;99876.75;5067131;28;20029;-65
2023/12/11 01:02:57;;;;;;;8.40;2.33;;;;;;;18.63;44.86;99866.00;5047677;28;20448;-65
2023/12/11 01:05:22;;;;;;;10.10;2.45;;;;;;;18.61;45.01;99855.59;5078833;28;20031;-65
2023/12/11 01:07:47;;;;;;;9.88;2.22;;;;;;;18.58;44.66;99855.88;5086398;28;20050;-66
2023/12/11 01:10:13;;;;;;;8.95;2.60;;;;;;;18.62;44.68;99862.50;5087621;28;20077;-65
2023/12/11 01:12:38;;;;;;;9.40;3.00;;;;;;;18.58;44.79;99852.41;5086363;28;20024;-66
2023/12/11 01:15:04;;;;;;;8.98;2.15;;;;;;;18.64;44.93;99860.56;5087016;28;20471;-65
2023/12/11 01:17:29;;;;;;;8.73;2.72;;;;;;;18.56;44.64;99841.16;5087265;28;20020;-66
2023/12/11 01:19:55;;;;;;;7.95;2.40;;;;;;;18.56;44.90;99836.72;5087135;28;20028;-65
2023/12/11 01:22:20;;;;;;;8.18;2.20;;;;;;;18.54;44.92;99829.94;5087074;28;20032;-66
2023/12/11 01:24:45;;;;;;;9.05;2.30;;;;;;;18.54;45.00;99837.88;5086892;28;20032;-66
2023/12/11 01:27:10;;;;;;;8.00;2.33;;;;;;;18.62;44.83;99851.13;5078011;28;20036;-67
2023/12/11 01:29:36;;;;;;;10.07;2.92;;;;;;;18.55;44.54;99836.88;5067204;28;20040;-68
2023/12/11 01:32:01;;;;;;;10.60;2.60;;;;;;;18.55;44.68;99831.59;5067072;28;20150;-66
2023/12/11 01:34:27;;;;;;;10.23;2.40;;;;;;;18.51;44.33;99825.78;5067445;28;20033;-66
2023/12/11 01:36:52;;;;;;;8.45;2.60;;;;;;;18.59;44.78;99843.50;5076164;28;20032;-67
2023/12/11 01:39:17;;;;;;;8.55;2.60;;;;;;;18.51;44.83;99823.16;5081137;28;20035;-67
2023/12/11 01:41:43;;;;;;;10.65;2.67;;;;;;;18.48;44.77;99808.47;5086246;28;20024;-67
2023/12/11 01:44:08;;;;;;;11.57;2.72;;;;;;;18.49;44.69;99818.03;5060347;28;20035;-65
2023/12/11 01:46:34;;;;;;;7.85;2.72;;;;;;;18.55;44.83;99826.31;5086672;28;20056;-66
2023/12/11 01:48:59;;;;;;;9.35;2.60;;;;;;;18.48;44.67;99811.13;5073902;28;20028;-65
2023/12/11 01:51:25;;;;;;;9.63;2.03;;;;;;;18.54;44.75;99822.03;5066433;28;20036;-67
2023/12/11 01:53:52;;;;;;;8.75;2.00;;;;;;;18.49;44.78;99814.56;5066635;28;20020;-66
2023/12/11 01:56:20;;;;;;;8.60;2.70;;;;;;;18.46;44.61;99802.50;5065012;28;20032;-65
2023/12/11 01:58:45;;;;;;;8.98;2.50;;;;;;;18.52;44.76;99811.63;5066444;28;20036;-64
2023/12/11 02:01:13;;;;;;;9.50;2.45;;;;;;;18.47;44.80;99798.06;5066473;28;20400;-66
2023/12/11 02:03:40;;;;;;;9.32;2.38;;;;;;;18.47;44.93;99798.91;5073224;28;20047;-65
2023/12/11 02:06:06;;;;;;;9.00;2.40;;;;;;;18.44;44.65;99780.72;5067664;28;20450;-67
2023/12/11 02:08:32;;;;;;;10.60;2.20;;;;;;;18.44;44.70;99777.28;5066362;28;20035;-65
2023/12/11 02:10:57;;;;;;;9.02;2.28;;;;;;;18.51;44.83;99796.78;5066451;28;20050;-65
2023/12/11 02:13:22;;;;;;;8.60;2.38;;;;;;;18.42;44.72;99782.69;5065614;28;20040;-65
2023/12/11 02:15:50;;;;;;;8.63;2.20;;;;;;;18.47;44.76;99782.25;5065084;28;20430;-65
2023/12/11 02:18:16;;;;;;;9.50;2.50;;;;;;;18.42;44.74;99776.56;5065708;28;20037;-67
2023/12/11 02:20:43;;;;;;;12.25;2.60;;;;;;;18.45;44.74;99784.19;5066367;28;20123;-66
2023/12/11 02:23:14;;;;;;;8.80;2.83;;;;;;;18.48;44.60;99797.94;5065967;28;20033;-67
2023/12/11 02:25:41;;;;;;;11.20;3.17;;;;;;;18.47;44.73;99792.78;5065639;28;20035;-66
2023/12/11 02:28:06;;;;;;;7.50;2.30;;;;;;;18.40;44.76;99782.00;5065720;28;20510;-68
2023/12/11 02:30:37;;;;;;;9.32;2.13;;;;;;;18.45;44.53;99789.47;5066588;28;20040;-66
2023/12/11 02:33:03;;;;;;;11.35;2.42;;;;;;;18.46;44.75;99781.41;5064968;28;20060;-66
2023/12/11 02:35:28;;;;;;;11.20;3.03;;;;;;;18.41;44.58;99772.31;5065941;28;20056;-65
2023/12/11 02:37:54;;;;;;;10.00;2.30;;;;;;;18.37;44.87;99771.75;5065866;28;20056;-66
2023/12/11 02:40:19;;;;;;;9.15;3.03;;;;;;;18.46;44.68;99777.94;5065817;28;20024;-66
2023/12/11 02:42:47;;;;;;;9.82;2.20;;;;;;;18.38;44.70;99757.59;5065678;28;20025;-66
2023/12/11 02:45:14;;;;;;;9.35;2.20;;;;;;;18.45;44.74;99757.81;5065889;28;20025;-67
2023/12/11 02:47:39;;;;;;;10.30;2.35;;;;;;;18.44;44.61;99756.16;5067369;28;20039;-66
2023/12/11 02:50:05;;;;;;;11.10;2.70;;;;;;;18.44;44.63;99758.81;5086020;28;20036;-66
2023/12/11 02:52:30;;;;;;;7.72;2.00;;;;;;;18.37;44.43;99745.38;5086128;28;20115;-66
2023/12/11 02:54:56;;;;;;;9.98;2.90;;;;;;;18.40;44.81;99752.97;5086297;28;20116;-66
2023/12/11 02:57:21;;;;;;;8.50;2.10;;;;;;;18.32;44.67;99726.53;5086354;28;20028;-66
2023/12/11 02:59:47;;;;;;;10.15;2.72;;;;;;;18.32;44.79;99726.53;5086241;28;20066;-65
2023/12/11 03:02:12;;;;;;;8.02;2.35;;;;;;;18.32;44.45;99723.91;5068291;28;20025;-65
2023/12/11 03:04:38;;;;;;;8.43;2.53;;;;;;;18.31;44.81;99720.47;5068303;28;20070;-67
2023/12/11 03:07:03;;;;;;;7.80;2.28;;;;;;;18.41;44.55;99724.81;5086532;28;20032;-65
2023/12/11 03:09:29;;;;;;;8.18;2.08;;;;;;;18.37;44.62;99729.53;5086155;28;20024;-66
2023/12/11 03:11:54;;;;;;;10.15;2.33;;;;;;;18.37;44.65;99724.28;5086219;28;20122;-66
2023/12/11 03:14:19;;;;;;;7.93;2.17;;;;;;;18.39;44.76;99722.31;5086286;28;20027;-68
2023/12/11 03:16:48;;;;;;;8.40;2.35;;;;;;;18.31;44.63;99703.81;5086184;28;21309;-66
2023/12/11 03:19:13;;;;;;;10.23;2.53;;;;;;;18.30;44.54;99700.31;5085878;28;20028;-66
2023/12/11 03:21:39;;;;;;;7.40;2.33;;;;;;;18.38;44.81;99709.28;5085938;28;20372;-65
2023/12/11 03:24:04;;;;;;;8.07;2.05;;;;;;;18.27;44.63;99684.81;5083902;28;20070;-66
2023/12/11 03:26:30;;;;;;;8.93;2.47;;;;;;;18.30;44.76;99707.41;5085364;28;20491;-66
2023/12/11 03:28:55;;;;;;;9.07;2.70;;;;;;;18.29;44.62;99698.69;5085338;28;20035;-66
2023/12/11 03:31:21;;;;;;;8.20;2.15;;;;;;;18.36;44.89;99714.72;5089131;28;20039;-66
2023/12/11 03:33:46;;;;;;;8.55;2.10;;;;;;;18.26;44.68;99698.16;5089468;28;20028;-68
2023/12/11 03:36:11;;;;;;;9.30;2.63;;;;;;;18.36;44.56;99711.22;5089355;28;20414;-66
2023/12/11 03:38:37;;;;;;;7.50;2.17;;;;;;;18.29;44.65;99706.59;5088709;28;20476;-68
2023/12/11 03:41:02;;;;;;;10.63;2.25;;;;;;;18.30;44.55;99705.59;5089261;28;20028;-67
2023/12/11 03:43:27;;;;;;;6.93;2.20;;;;;;;18.33;44.74;99707.13;5089698;28;20031;-67
2023/12/11 03:45:54;;;;;;;7.20;2.08;;;;;;;18.33;44.49;99714.22;5089325;28;20513;-67
2023/12/11 03:48:20;;;;;;;8.35;2.55;;;;;;;18.23;44.80;99711.63;5070328;28;20384;-66
2023/12/11 03:50:45;;;;;;;7.90;2.13;;;;;;;18.30;44.40;99712.69;5078113;28;20032;-66
2023/12/11 03:53:10;;;;;;;8.65;2.55;;;;;;;18.32;44.54;99713.34;5069079;28;20024;-67
2023/12/11 03:55:36;;;;;;;8.60;2.22;;;;;;;18.30;44.36;99708.22;5068690;28;20426;-66
2023/12/11 03:58:01;;;;;;;8.00;2.10;;;;;;;18.30;44.61;99710.88;5068700;28;20416;-67
2023/12/11 04:00:26;;;;;;;6.97;2.00;;;;;;;18.21;44.79;99689.88;5068637;28;20076;-67
2023/12/11 04:02:52;;;;;;;7.68;2.15;;;;;;;18.21;44.87;99703.88;5070907;28;20490;-66
2023/12/11 04:05:17;;;;;;;9.23;1.90;;;;;;;18.30;44.79;99702.16;5058707;28;20448;-66
2023/12/11 04:07:43;;;;;;;7.38;2.20;;;;;;;18.28;44.72;99699.66;5069035;28;20459;-66
2023/12/11 04:10:09;;;;;;;7.95;2.45;;;;;;;18.28;44.82;99704.94;5068739;28;20131;-66
2023/12/11 04:12:34;;;;;;;6.05;1.80;;;;;;;18.28;44.90;99715.47;5068548;28;20138;-67
2023/12/11 04:14:59;;;;;;;8.00;2.60;;;;;;;18.21;45.21;99695.16;5067778;28;20464;-66
2023/12/11 04:17:25;;;;;;;6.75;2.10;;;;;;;18.26;44.83;99701.63;5068593;28;20507;-66
2023/12/11 04:19:50;;;;;;;8.32;2.13;;;;;;;18.25;44.65;99707.06;5068592;28;20388;-66
2023/12/11 04:22:15;;;;;;;8.95;2.22;;;;;;;18.23;44.72;99701.94;5068628;28;20388;-67
2023/12/11 04:24:41;;;;;;;7.95;2.28;;;;;;;18.16;45.04;99681.59;5066592;28;20143;-66
2023/12/11 04:27:06;;;;;;;8.00;2.08;;;;;;;18.16;45.05;99686.88;5068663;28;20032;-67
2023/12/11 04:29:31;;;;;;;9.57;2.25;;;;;;;18.24;44.75;99692.19;5066969;28;20031;-67
2023/12/11 04:31:57;;;;;;;10.38;2.53;;;;;;;18.17;44.94;99678.81;5067402;28;20033;-68
2023/12/11 04:34:22;;;;;;;10.80;2.17;;;;;;;18.20;44.96;99675.00;5067605;28;20032;-67
2023/12/11 04:36:47;;;;;;;10.00;2.20;;;;;;;18.22;45.11;99684.44;5067643;28;20036;-67
2023/12/11 04:39:13;;;;;;;7.50;1.92;;;;;;;18.24;44.96;99677.19;5067843;28;20415;-66
2023/12/11 04:41:38;;;;;;;8.88;2.55;;;;;;;18.16;44.95;99663.97;5065566;28;20055;-66
2023/12/11 04:44:03;;;;;;;9.00;2.10;;;;;;;18.24;45.11;99687.75;5067603;28;20029;-66
2023/12/11 04:46:29;;;;;;;9.85;2.58;;;;;;;18.24;45.10;99676.38;5077140;28;20518;-67
2023/12/11 04:48:54;;;;;;;7.75;2.28;;;;;;;18.16;45.10;99666.59;5087169;28;20024;-66
2023/12/11 04:51:19;;;;;;;7.93;1.83;;;;;;;18.24;45.10;99689.56;5087574;28;20064;-66
2023/12/11 04:53:45;;;;;;;7.95;2.20;;;;;;;18.16;45.08;99668.41;5087682;28;20464;-67
2023/12/11 04:56:10;;;;;;;6.88;1.83;;;;;;;18.13;45.05;99657.19;5087478;28;20028;-66
2023/12/11 04:58:36;;;;;;;6.90;1.75;;;;;;;18.19;45.21;99679.47;5087298;28;20047;-66
2023/12/11 05:01:02;;;;;;;7.53;2.13;;;;;;;18.16;45.11;99671.88;5086726;28;21174;-66
2023/12/11 05:03:28;;;;;;;7.55;1.95;;;;;;;18.16;45.30;99671.03;5085899;28;20090;-66
2023/12/11 05:05:53;;;;;;;5.85;1.95;;;;;;;18.17;44.88;99665.63;5087765;28;20649;-66
2023/12/11 05:08:19;;;;;;;9.20;2.13;;;;;;;18.21;45.07;99666.94;5087228;28;20024;-67
2023/12/11 05:10:44;;;;;;;7.30;1.95;;;;;;;18.19;45.20;99674.19;5086711;28;20028;-65
2023/12/11 05:13:09;;;;;;;8.23;2.42;;;;;;;18.20;45.30;99670.59;5087358;28;20028;-64
2023/12/11 05:15:35;;;;;;;7.60;2.13;;;;;;;18.20;45.09;99689.06;5087044;28;20061;-65
2023/12/11 05:18:00;;;;;;;7.63;2.10;;;;;;;18.11;45.35;99668.88;5086677;28;20032;-65
2023/12/11 05:20:25;;;;;;;5.65;2.13;;;;;;;18.16;45.24;99678.97;5087148;28;20028;-65
2023/12/11 05:22:51;;;;;;;10.85;2.25;;;;;;;18.10;45.19;99667.19;5086907;28;20456;-68
2023/12/11 05:25:16;;;;;;;7.95;2.25;;;;;;;18.17;45.32;99676.16;5086887;28;20491;-66
2023/12/11 05:27:41;;;;;;;7.38;2.00;;;;;;;18.18;45.30;99679.63;5083411;28;20102;-68
2023/12/11 05:30:07;;;;;;;8.00;1.90;;;;;;;18.17;45.48;99678.81;5087121;28;20028;-65
2023/12/11 05:32:32;;;;;;;8.02;1.90;;;;;;;18.14;45.18;99684.38;5086561;28;20032;-66
2023/12/11 05:34:58;;;;;;;7.15;1.95;;;;;;;18.17;45.21;99686.72;5087235;28;20425;-67
2023/12/11 05:37:24;;;;;;;7.32;2.90;;;;;;;18.08;45.31;99664.72;5085865;28;20032;-68
2023/12/11 05:39:49;;;;;;;5.60;1.80;;;;;;;18.09;45.54;99670.84;5086271;28;20118;-66
2023/12/11 05:42:14;;;;;;;8.43;2.33;;;;;;;18.13;45.26;99677.44;5087110;28;20024;-66
2023/12/11 05:44:40;;;;;;;9.82;2.40;;;;;;;18.17;45.43;99685.91;5085311;28;20476;-67
2023/12/11 05:47:05;;;;;;;8.00;2.00;;;;;;;18.13;45.53;99677.44;5072627;28;20041;-66
2023/12/11 05:49:30;;;;;;;7.38;2.13;;;;;;;18.06;45.44;99666.69;5065666;28;20032;-66
2023/12/11 05:51:56;;;;;;;7.25;2.13;;;;;;;18.15;45.43;99674.66;5065707;28;20031;-67
2023/12/11 05:54:21;;;;;;;8.80;2.13;;;;;;;18.05;45.60;99662.38;5066169;28;20063;-66
2023/12/11 05:56:47;;;;;;;8.38;2.38;;;;;;;18.06;45.22;99663.22;5066227;28;20032;-65
2023/12/11 05:59:12;;;;;;;7.72;2.03;;;;;;;18.13;45.44;99675.66;5065870;28;20571;-66
2023/12/11 06:01:37;;;;;;;7.60;1.98;;;;;;;18.02;45.46;99657.41;5066386;28;20528;-65
2023/12/11 06:04:03;;;;;;;9.93;2.53;;;;;;;18.10;45.71;99670.69;5067947;28;20436;-66
2023/12/11 06:06:29;;;;;;;8.05;2.13;;;;;;;18.08;45.58;99667.34;5086614;28;20077;-66
2023/12/11 06:08:54;;;;;;;8.02;2.00;;;;;;;18.05;45.37;99659.75;5081695;28;20480;-66
2023/12/11 06:11:19;;;;;;;8.32;2.22;;;;;;;18.05;45.37;99659.75;5066512;28;20029;-66
2023/12/11 06:13:45;;;;;;;7.55;1.65;;;;;;;18.11;45.56;99669.69;5066086;28;20062;-66
2023/12/11 06:16:10;;;;;;;6.82;1.88;;;;;;;18.14;45.12;99673.84;5065885;28;20518;-66
2023/12/11 06:18:36;;;;;;;6.13;1.95;;;;;;;18.12;45.20;99670.53;5066262;28;20051;-65
2023/12/11 06:21:01;;;;;;;6.03;1.40;;;;;;;18.16;45.07;99682.41;5066115;28;20036;-65
2023/12/11 06:23:27;;;;;;;6.55;1.67;;;;;;;18.10;44.91;99672.47;5066243;28;20353;-67
2023/12/11 06:25:52;;;;;;;6.22;1.75;;;;;;;18.13;44.93;99673.03;5065687;28;20033;-65
2023/12/11 06:28:17;;;;;;;6.03;1.67;;;;;;;18.17;45.11;99675.34;5065467;28;20720;-66
2023/12/11 06:30:43;;;;;;;7.15;1.80;;;;;;;18.23;44.85;99680.00;5070165;28;20044;-66
2023/12/11 06:33:09;;;;;;;6.07;1.70;;;;;;;18.20;45.09;99677.66;5081965;28;20036;-66
2023/12/11 06:35:34;;;;;;;5.85;1.65;;;;;;;18.28;44.98;99683.00;5084064;28;20038;-66
2023/12/11 06:38:00;;;;;;;6.68;1.77;;;;;;;18.24;45.07;99664.00;5085553;28;20136;-67
2023/12/11 06:40:25;;;;;;;7.35;1.73;;;;;;;18.24;45.02;99671.09;5085989;28;20039;-68
2023/12/11 06:42:50;;;;;;;7.15;1.67;;;;;;;18.33;45.12;99685.19;5065584;28;20047;-66
2023/12/11 06:45:16;;;;;;;6.53;1.60;;;;;;;18.28;45.11;99662.72;5065879;28;20037;-67
2023/12/11 06:47:41;;;;;;;5.68;1.55;;;;;;;18.38;45.08;99685.56;5068215;28;20081;-68
2023/12/11 06:50:07;;;;;;;6.95;1.92;;;;;;;18.39;45.30;99676.63;5085368;28;20032;-66
2023/12/11 06:52:32;;;;;;;5.85;1.40;;;;;;;18.44;44.99;99682.31;5086003;28;20039;-66
2023/12/11 06:54:57;;;;;;;7.82;1.83;;;;;;;18.38;45.21;99681.09;5085948;28;20036;-67
2023/12/11 06:57:23;;;;;;;5.93;1.63;;;;;;;18.38;44.94;99680.28;5085519;28;20028;-66
2023/12/11 06:59:48;;;;;;;6.82;1.73;;;;;;;18.41;45.14;99683.44;5085684;28;20036;-67
2023/12/11 07:02:13;;;;;;;5.85;1.85;;;;;;;18.50;45.23;99689.59;5084354;28;20037;-67
2023/12/11 07:04:41;;;;;;;6.32;1.60;;;;;;;18.52;45.14;99699.97;5085323;28;20032;-71
2023/12/11 07:07:07;;;;;;;6.50;1.60;;;;;;;18.44;44.95;99685.75;5089721;28;20118;-70
2023/12/11 07:09:33;;;;;;;6.93;1.80;;;;;;;18.54;45.22;99714.69;5089147;28;20044;-66
2023/12/11 07:11:58;;;;;;;7.03;1.92;;;;;;;18.55;45.28;99710.22;5089600;28;20392;-69
2023/12/11 07:14:24;;;;;;;5.05;1.90;;;;;;;18.55;45.06;99708.44;5089923;28;20157;-70
2023/12/11 07:16:50;;;;;;;6.53;1.90;;;;;;;18.51;45.10;99706.25;5089847;28;20478;-69
2023/12/11 07:19:16;;;;;;;6.82;1.63;;;;;;;18.48;44.90;99700.31;5089683;28;20028;-69
2023/12/11 07:21:43;;;;;;;6.72;1.60;;;;;;;18.57;45.11;99718.81;5089980;28;20036;-70
2023/12/11 07:24:08;;;;;;;6.07;1.58;;;;;;;18.55;44.96;99713.69;5088768;28;20055;-69
2023/12/11 07:26:33;;;;;;;7.82;1.67;;;;;;;18.58;44.82;99729.22;5090031;28;20038;-69
2023/12/11 07:29:00;;;;;;;7.35;1.92;;;;;;;18.58;44.84;99731.03;5089464;28;20482;-70
2023/12/11 07:31:25;;;;;;;7.38;1.70;;;;;;;18.59;44.99;99732.69;5089628;28;20036;-69
2023/12/11 07:33:50;;;;;;;5.47;1.45;;;;;;;18.52;44.98;99718.44;5089752;28;20055;-70
2023/12/11 07:36:16;;;;;;;5.85;1.63;;;;;;;18.58;44.96;99742.41;5087433;28;20035;-69
2023/12/11 07:38:41;;;;;;;6.97;1.40;;;;;;;18.58;44.75;99741.56;5089010;28;20114;-69
2023/12/11 07:41:07;;;;;;;5.93;1.60;;;;;;;18.53;44.88;99749.13;5088518;28;20078;-69
2023/12/11 07:43:32;;;;;;;5.07;1.58;;;;;;;18.58;44.96;99760.88;5089235;28;20463;-69
2023/12/11 07:45:59;;;;;;;6.78;1.90;;;;;;;18.60;45.11;99773.94;5088490;28;20075;-69
2023/12/11 07:48:25;;;;;;;8.38;1.77;;;;;;;18.59;45.23;99764.34;5080095;28;20040;-70
2023/12/11 07:50:51;;;;;;;6.53;1.85;;;;;;;18.58;45.29;99775.88;5088418;28;20024;-69
2023/12/11 07:53:16;;;;;;;8.18;1.83;;;;;;;18.53;45.41;99768.41;5068645;28;20493;-70
2023/12/11 07:55:41;;;;;;;5.90;1.52;;;;;;;18.60;45.59;99792.41;5068632;28;20032;-70
2023/12/11 07:58:07;;;;;;;5.85;1.70;;;;;;;18.54;45.58;99783.28;5067928;28;20116;-69
2023/12/11 08:00:32;;;;;;;6.80;1.85;;;;;;;18.51;45.51;99791.50;5068645;28;20043;-69
2023/12/11 08:02:58;;;;;;;6.68;1.73;;;;;;;18.49;45.45;99783.72;5073639;28;20035;-67
2023/12/11 08:05:23;;;;;;;6.03;1.58;;;;;;;18.52;45.34;99782.59;5076427;28;20120;-70
2023/12/11 08:07:48;;;;;;;8.45;2.05;;;;;;;18.61;45.98;99804.59;5068238;28;20047;-70
2023/12/11 08:10:16;;;;;;;7.50;2.08;;;;;;;18.53;46.03;99808.00;5066937;28;20037;-70
2023/12/11 08:12:41;;;;;;;5.20;1.70;;;;;;;18.52;46.08;99793.16;5071718;28;20532;-70
2023/12/11 08:15:08;;;;;;;6.68;2.05;;;;;;;18.52;46.40;99795.81;5060431;28;20036;-71
2023/12/11 08:17:33;;;;;;;6.93;1.88;;;;;;;18.56;46.45;99796.31;5066289;28;20093;-73
2023/12/11 08:19:58;;;;;;;5.90;1.67;;;;;;;18.66;46.47;99823.47;5062474;28;20040;-71
2023/12/11 08:22:24;;;;;;;5.40;1.50;;;;;;;18.68;46.31;99818.84;5080014;28;20920;-69
2023/12/11 08:24:49;;;;;;;6.13;1.77;;;;;;;18.58;46.39;99800.47;5087511;28;20478;-69
2023/12/11 08:27:15;;;;;;;7.95;1.63;;;;;;;18.64;46.39;99822.75;5071684;28;20028;-70
2023/12/11 08:29:41;;;;;;;6.07;1.50;;;;;;;18.68;46.15;99827.59;5051948;28;20035;-70
2023/12/11 08:32:06;;;;;;;5.90;1.77;;;;;;;18.71;46.25;99838.81;5054098;28;20063;-70
2023/12/11 08:34:32;;;;;;;9.23;1.98;;;;;;;18.68;45.91;99837.31;5053940;28;20543;-69
2023/12/11 08:36:58;;;;;;;9.95;1.80;;;;;;;18.67;46.02;99844.44;5063578;28;20059;-69
2023/12/11 08:39:23;;;;;;;6.53;1.60;;;;;;;18.61;45.89;99837.13;5065990;28;20072;-68
2023/12/11 08:41:49;;;;;;;10.18;1.70;;;;;;;18.71;45.87;99841.44;5066970;28;20044;-70
2023/12/11 08:44:15;;;;;;;7.38;1.40;;;;;;;18.61;46.15;99838.91;5080243;28;20071;-69
2023/12/11 08:46:42;;;;;;;9.02;1.40;;;;;;;18.59;45.75;99844.31;5079484;28;20507;-70
2023/12/11 08:49:08;;;;;;;5.10;1.50;;;;;;;18.70;46.04;99858.28;5070154;28;20028;-69
2023/12/11 08:51:33;;;;;;;6.45;1.70;;;;;;;18.71;45.93;99871.34;5088252;28;20038;-68
2023/12/11 08:53:59;;;;;;;6.30;1.30;;;;;;;18.72;45.80;99877.44;5088005;28;20478;-70
2023/12/11 08:56:24;;;;;;;5.10;1.13;;;;;;;18.73;45.87;99877.28;5088224;28;20035;-70
2023/12/11 08:58:53;;;;;;;5.03;1.20;;;;;;;18.64;45.68;99873.75;5087133;28;20429;-70
2023/12/11 09:01:18;;;;;;;5.07;1.50;;;;;;;18.71;45.60;99903.00;5069173;28;20077;-69
2023/12/11 09:03:45;;;;;;;6.70;1.50;;;;;;;18.63;45.99;99895.03;5080488;28;20046;-71
2023/12/11 09:06:12;;;;;;;4.82;1.38;;;;;;;18.71;45.93;99918.00;5085031;28;20423;-70
2023/12/11 09:08:37;;;;;;;7.78;1.35;;;;;;;18.63;45.68;99922.22;5086514;28;20032;-70
2023/12/11 09:11:03;;;;;;;6.97;1.60;;;;;;;18.72;45.96;99940.78;5085859;28;20028;-69
2023/12/11 09:13:28;;;;;;;8.23;1.92;;;;;;;18.73;46.09;99961.75;5085134;28;20027;-70
2023/12/11 09:15:53;;;;;;;5.88;1.75;;;;;;;18.74;45.95;99965.19;5086939;28;20119;-69
2023/12/11 09:18:19;;;;;;;5.32;1.40;;;;;;;18.72;46.12;99951.34;5088554;28;20365;-71
2023/12/11 09:20:44;;;;;;;7.47;1.63;;;;;;;18.62;46.28;99946.94;5086331;28;20541;-71
2023/12/11 09:23:10;;;;;;;4.85;1.50;;;;;;;18.64;46.13;99946.81;5086500;28;20068;-71
2023/12/11 09:25:36;;;;;;;4.50;1.20;;;;;;;18.63;46.03;99951.25;5085443;28;20032;-71
2023/12/11 09:28:01;;;;;;;6.05;1.60;;;;;;;18.73;46.14;99964.38;5085835;28;20046;-70
2023/12/11 09:30:28;;;;;;;6.82;1.90;;;;;;;18.72;46.16;99969.81;5086246;28;20460;-71
2023/12/11 09:32:53;;;;;;;5.93;1.45;;;;;;;18.69;46.16;99981.47;5086388;28;20024;-69
2023/12/11 09:35:19;;;;;;;7.38;1.67;;;;;;;18.68;46.44;99972.75;5068105;28;20464;-70
2023/12/11 09:37:46;;;;;;;7.00;1.40;;;;;;;18.64;46.21;99984.59;5086129;28;20082;-70
2023/12/11 09:40:11;;;;;;;4.25;1.48;;;;;;;18.72;46.51;99999.66;5086098;28;20024;-71
2023/12/11 09:42:40;;;;;;;5.18;1.48;;;;;;;18.72;46.44;99997.03;5085631;28;20024;-70
2023/12/11 09:45:06;;;;;;;6.78;1.55;;;;;;;18.63;45.98;99987.38;5086209;28;20054;-70
2023/12/11 09:47:39;;;;;;;5.25;1.20;;;;;;;18.64;46.24;99991.66;5085253;28;20052;-70
2023/12/11 09:50:05;;;;;;;6.07;1.45;;;;;;;18.73;46.11;100011.88;5086382;28;20450;-70
2023/12/11 09:52:31;;;;;;;5.47;1.58;;;;;;;18.63;46.33;100008.50;5086137;28;20016;-70
2023/12/11 09:54:57;;;;;;;7.43;1.40;;;;;;;18.65;46.39;100012.63;5086116;28;20024;-69
2023/12/11 09:57:24;;;;;;;6.60;1.60;;;;;;;18.62;46.58;100012.91;5086409;28;20464;-70
2023/12/11 09:59:51;;;;;;;5.70;1.20;;;;;;;18.72;46.09;100039.25;5083815;28;20466;-70
2023/12/11 10:02:17;;;;;;;5.28;1.90;;;;;;;18.71;46.16;100042.03;5061879;28;20035;-69
2023/12/11 10:05:01;;;;;;;6.85;1.20;;;;;;;18.74;45.95;100039.09;5083010;28;20112;-71
2023/12/11 10:07:27;;;;;;;7.00;1.60;;;;;;;18.72;46.13;100046.34;5085080;28;20024;-71
2023/12/11 10:09:52;;;;;;;5.22;1.40;;;;;;;18.75;46.25;100048.69;5084826;28;20047;-71
2023/12/11 10:12:17;;;;;;;4.57;1.10;;;;;;;18.75;46.24;100048.69;5082888;28;20816;-69
2023/12/11 10:14:59;;;;;;;9.30;1.65;;;;;;;18.72;46.16;100055.09;5080313;28;20074;-70
2023/12/11 10:17:25;;;;;;;5.05;1.30;;;;;;;18.68;46.10;100059.84;5085258;28;20074;-70
2023/12/11 10:19:50;;;;;;;3.50;1.10;;;;;;;18.74;46.11;100049.66;5083785;28;20472;-70
2023/12/11 10:22:31;;;;;;;4.85;1.20;;;;;;;18.75;46.00;100067.16;5085343;28;20377;-69
2023/12/11 10:24:58;;;;;;;5.40;1.35;;;;;;;18.71;46.01;100068.44;5084694;28;20053;-69
2023/12/11 10:27:26;;;;;;;5.35;1.52;;;;;;;18.63;46.04;100051.53;5085642;28;20020;-69
2023/12/11 10:30:09;;;;;;;5.78;1.58;;;;;;;18.74;46.20;100068.13;5085588;28;20119;-70
2023/12/11 10:32:34;;;;;;;4.38;1.20;;;;;;;18.64;45.85;100068.19;5085962;28;20028;-69
2023/12/11 10:34:59;;;;;;;5.78;1.30;;;;;;;18.60;45.89;100072.13;5086272;28;20032;-69
2023/12/11 10:37:34;;;;;;;5.22;1.20;;;;;;;18.61;45.78;100081.69;5067293;28;20040;-69
2023/12/11 10:40:00;;;;;;;4.53;1.17;;;;;;;18.62;45.91;100068.34;5087478;28;20035;-69
2023/12/11 10:42:27;;;;;;;8.30;1.45;;;;;;;18.71;45.68;100100.97;5090251;28;20062;-69
2023/12/11 10:44:54;;;;;;;4.47;1.23;;;;;;;18.70;45.62;100104.56;5090423;28;20046;-70
2023/12/11 10:47:20;;;;;;;4.65;1.25;;;;;;;18.63;45.80;100090.31;5090486;28;20637;-69
2023/12/11 10:49:45;;;;;;;5.25;1.20;;;;;;;18.60;45.51;100101.97;5089030;28;20491;-69
2023/12/11 10:52:11;;;;;;;5.28;1.30;;;;;;;18.68;45.64;100114.44;5071977;28;20024;-69
2023/12/11 10:54:41;;;;;;;6.60;1.30;;;;;;;18.62;45.45;100113.19;5089870;28;20028;-70
2023/12/11 10:57:11;;;;;;;4.20;1.25;;;;;;;18.65;45.71;100115.56;5090332;28;20077;-70
2023/12/11 10:59:38;;;;;;;6.68;1.42;;;;;;;18.56;45.78;100112.97;5071291;28;20032;-69
2023/12/11 11:02:05;;;;;;;4.20;1.20;;;;;;;18.63;45.98;100125.44;5088268;28;20464;-69
2023/12/11 11:04:34;;;;;;;3.63;1.05;;;;;;;18.62;45.59;100133.50;5089382;28;20043;-69
2023/12/11 11:07:14;;;;;;;6.85;1.50;;;;;;;18.63;45.69;100135.16;5089302;28;20039;-69
2023/12/11 11:09:58;;;;;;;4.90;1.00;;;;;;;18.62;45.57;100141.41;5087608;28;20036;-70
2023/12/11 11:12:48;;;;;;;4.40;0.80;;;;;;;18.61;45.56;100145.88;5090777;28;20063;-67
2023/12/11 11:15:21;;;;;;;4.85;1.10;;;;;;;18.59;45.69;100146.97;5089577;28;20043;-68
2023/12/11 11:18:11;;;;;;;4.43;1.15;;;;;;;18.60;45.58;100148.66;5089074;28;20107;-69
2023/12/11 11:20:38;;;;;;;6.43;1.00;;;;;;;18.51;45.63;100144.22;5089174;28;20096;-70
2023/12/11 11:23:15;;;;;;;4.50;1.10;;;;;;;18.58;46.02;100162.00;5089615;28;20031;-68
2023/12/11 11:25:53;;;;;;;6.35;1.70;;;;;;;18.55;45.96;100154.34;5089524;28;20036;-69
2023/12/11 11:28:40;;;;;;;5.57;1.27;;;;;;;18.51;45.78;100165.34;5089370;28;20383;-69